createdAt,value
2022-12-01T00:01:19.493Z,7.20
2022-12-01T00:03:47.285Z,7.50
2022-12-01T00:06:17.814Z,6.87
2022-12-01T00:09:06.604Z,7.22
2022-12-01T00:11:35.411Z,7.50
2022-12-01T00:14:02.687Z,8.00
2022-12-01T00:16:30.326Z,7.68
2022-12-01T00:18:58.018Z,7.20
2022-12-01T00:21:26.523Z,7.50
2022-12-01T00:23:55.401Z,6.62
2022-12-01T00:26:23.540Z,6.40
2022-12-01T00:28:51.649Z,7.87
2022-12-01T00:31:19.147Z,7.80
2022-12-01T00:33:46.577Z,7.47
2022-12-01T00:36:13.615Z,8.15
2022-12-01T00:38:40.602Z,7.90
2022-12-01T00:41:08.390Z,7.85
2022-12-01T00:43:35.382Z,7.93
2022-12-01T00:46:02.858Z,7.18
2022-12-01T00:48:31.414Z,7.07
2022-12-01T00:50:58.497Z,7.47
2022-12-01T00:53:25.486Z,7.80
2022-12-01T00:55:55.544Z,7.70
2022-12-01T00:58:24.110Z,6.97
2022-12-01T01:01:01.273Z,7.20
2022-12-01T01:03:29.523Z,7.47
2022-12-01T01:05:56.662Z,6.87
2022-12-01T01:08:23.716Z,7.18
2022-12-01T01:10:51.177Z,7.15
2022-12-01T01:13:18.215Z,7.85
2022-12-01T01:15:45.236Z,7.43
2022-12-01T01:18:12.687Z,7.25
2022-12-01T01:20:39.821Z,7.82
2022-12-01T01:23:06.937Z,7.87
2022-12-01T01:25:34.368Z,7.47
2022-12-01T01:28:01.344Z,8.27
2022-12-01T01:30:28.393Z,7.15
2022-12-01T01:32:55.747Z,7.18
2022-12-01T01:35:22.727Z,7.60
2022-12-01T01:37:50.908Z,8.48
2022-12-01T01:40:18.643Z,7.90
2022-12-01T01:42:46.030Z,7.28
2022-12-01T01:45:25.180Z,8.02
2022-12-01T01:47:53.790Z,8.07
2022-12-01T01:50:24.287Z,8.65
2022-12-01T01:53:11.052Z,7.85
2022-12-01T01:55:38.437Z,8.30
2022-12-01T01:58:08.428Z,7.00
2022-12-01T02:00:36.142Z,7.62
2022-12-01T02:03:04.045Z,8.05
2022-12-01T02:05:33.205Z,7.18
2022-12-01T02:08:02.061Z,6.47
2022-12-01T02:11:33.977Z,7.53
2022-12-01T02:14:26.064Z,7.72
2022-12-01T02:17:21.850Z,7.62
2022-12-01T02:20:13.688Z,7.47
2022-12-01T02:22:43.842Z,7.35
2022-12-01T02:25:33.772Z,8.32
2022-12-01T02:28:21.225Z,6.90
2022-12-01T02:31:01.136Z,7.80
2022-12-01T02:33:42.049Z,8.23
2022-12-01T02:36:15.956Z,8.48
2022-12-01T02:41:29.929Z,6.37
2022-12-01T02:44:11.037Z,7.25
2022-12-01T02:46:59.334Z,7.30
2022-12-01T02:49:31.428Z,7.00
2022-12-01T02:51:58.685Z,7.15
2022-12-01T02:54:26.290Z,7.43
2022-12-01T02:56:53.683Z,5.95
2022-12-01T02:59:20.727Z,6.00
2022-12-01T03:02:14.553Z,6.18
2022-12-01T03:04:55.824Z,5.65
2022-12-01T03:07:30.218Z,6.32
2022-12-01T03:10:20.247Z,6.40
2022-12-01T03:13:01.736Z,6.05
2022-12-01T03:15:31.290Z,6.72
2022-12-01T03:18:07.408Z,6.25
2022-12-01T03:20:40.070Z,6.22
2022-12-01T03:23:15.048Z,5.85
2022-12-01T03:25:45.524Z,6.28
2022-12-01T03:28:21.299Z,6.03
2022-12-01T03:30:52.781Z,6.25
2022-12-01T03:33:27.259Z,6.95
2022-12-01T03:35:59.343Z,5.47
2022-12-01T03:38:28.460Z,5.70
2022-12-01T03:41:03.700Z,6.25
2022-12-01T03:43:33.579Z,5.60
2022-12-01T03:46:07.728Z,6.75
2022-12-01T03:48:34.895Z,6.72
2022-12-01T03:51:16.548Z,4.65
2022-12-01T03:54:00.142Z,5.37
2022-12-01T03:56:33.093Z,5.82
2022-12-01T03:59:00.808Z,6.53
2022-12-01T04:01:32.758Z,6.30
2022-12-01T04:04:11.826Z,5.53
2022-12-01T04:06:40.706Z,5.43
2022-12-01T04:09:07.984Z,6.65
2022-12-01T04:12:01.705Z,6.12
2022-12-01T04:14:30.134Z,6.17
2022-12-01T04:16:57.130Z,5.05
2022-12-01T04:19:24.133Z,5.57
2022-12-01T04:21:51.408Z,5.95
2022-12-01T04:24:18.406Z,5.32
2022-12-01T04:26:46.153Z,4.30
2022-12-01T04:29:14.037Z,4.80
2022-12-01T04:31:41.196Z,5.22
2022-12-01T04:34:09.755Z,5.12
2022-12-01T04:36:37.045Z,6.00
2022-12-01T04:39:04.119Z,5.60
2022-12-01T04:41:31.260Z,5.43
2022-12-01T04:43:58.568Z,6.15
2022-12-01T04:46:25.757Z,5.68
2022-12-01T04:48:52.824Z,6.10
2022-12-01T04:51:21.313Z,6.62
2022-12-01T04:53:49.438Z,6.03
2022-12-01T04:56:16.503Z,6.47
2022-12-01T04:58:43.876Z,7.12
2022-12-01T05:01:12.689Z,6.68
2022-12-01T05:03:41.969Z,6.43
2022-12-01T05:06:18.530Z,6.55
2022-12-01T05:08:45.601Z,5.95
2022-12-01T05:11:13.585Z,6.47
2022-12-01T05:13:42.680Z,8.48
2022-12-01T05:16:15.181Z,6.90
2022-12-01T05:18:42.938Z,6.80
2022-12-01T05:21:11.144Z,6.75
2022-12-01T05:23:39.110Z,7.70
2022-12-01T05:26:08.249Z,7.90
2022-12-01T05:28:36.023Z,7.12
2022-12-01T05:31:03.224Z,7.12
2022-12-01T05:33:30.868Z,7.18
2022-12-01T05:35:57.935Z,7.62
2022-12-01T05:38:25.004Z,7.70
2022-12-01T05:40:53.934Z,7.55
2022-12-01T05:43:27.137Z,7.87
2022-12-01T05:45:57.455Z,8.55
2022-12-01T05:48:25.215Z,8.45
2022-12-01T05:50:52.559Z,8.30
2022-12-01T05:53:20.304Z,6.80
2022-12-01T05:55:51.896Z,8.23
2022-12-01T05:58:19.192Z,7.80
2022-12-01T06:00:46.432Z,8.35
2022-12-01T06:03:14.155Z,8.30
2022-12-01T06:05:41.350Z,9.30
2022-12-01T06:08:08.387Z,8.50
2022-12-01T06:10:35.718Z,9.15
2022-12-01T06:13:02.716Z,8.65
2022-12-01T06:15:29.762Z,9.52
2022-12-01T06:17:59.503Z,8.05
2022-12-01T06:20:26.788Z,9.48
2022-12-01T06:22:53.850Z,8.80
2022-12-01T06:25:21.208Z,9.30
2022-12-01T06:27:48.261Z,9.27
2022-12-01T06:30:15.430Z,8.90
2022-12-01T06:32:42.834Z,8.60
2022-12-01T06:35:09.836Z,9.48
2022-12-01T06:37:36.821Z,9.02
2022-12-01T06:40:04.833Z,9.68
2022-12-01T06:42:32.461Z,8.85
2022-12-01T06:44:59.496Z,8.75
2022-12-01T06:47:27.124Z,10.27
2022-12-01T06:49:54.114Z,8.52
2022-12-01T06:52:21.171Z,9.45
2022-12-01T06:54:48.482Z,9.63
2022-12-01T06:57:15.874Z,9.00
2022-12-01T06:59:43.272Z,9.75
2022-12-01T07:02:12.563Z,9.70
2022-12-01T07:04:39.588Z,9.30
2022-12-01T07:07:06.607Z,9.52
2022-12-01T07:09:34.229Z,9.98
2022-12-01T07:12:01.232Z,9.93
2022-12-01T07:14:28.461Z,10.15
2022-12-01T07:16:55.938Z,10.10
2022-12-01T07:19:22.970Z,9.77
2022-12-01T07:21:50.251Z,10.32
2022-12-01T07:24:17.880Z,9.93
2022-12-01T07:26:44.955Z,14.60
2022-12-01T07:29:12.081Z,15.00
2022-12-01T07:31:39.383Z,15.18
2022-12-01T07:34:06.609Z,14.50
2022-12-01T07:36:33.809Z,12.23
2022-12-01T07:39:05.381Z,9.98
2022-12-01T07:41:32.573Z,9.25
2022-12-01T07:43:59.824Z,8.77
2022-12-01T07:46:28.341Z,8.75
2022-12-01T07:48:56.073Z,8.20
2022-12-01T07:51:24.315Z,8.30
2022-12-01T07:53:52.562Z,9.15
2022-12-01T07:56:20.363Z,9.43
2022-12-01T07:58:47.516Z,10.15
2022-12-01T08:01:25.032Z,9.95
2022-12-01T08:03:58.053Z,8.02
2022-12-01T08:06:25.850Z,8.00
2022-12-01T08:08:53.301Z,8.20
2022-12-01T08:11:25.686Z,8.30
2022-12-01T08:13:53.457Z,8.60
2022-12-01T08:16:22.611Z,8.13
2022-12-01T08:18:49.697Z,7.50
2022-12-01T08:21:19.321Z,8.60
2022-12-01T08:23:46.463Z,8.45
2022-12-01T08:26:16.210Z,8.90
2022-12-01T08:28:43.889Z,8.82
2022-12-01T08:31:22.673Z,8.00
2022-12-01T08:33:51.065Z,8.52
2022-12-01T08:36:18.782Z,7.97
2022-12-01T08:38:47.197Z,7.12
2022-12-01T08:41:15.189Z,8.40
2022-12-01T08:44:00.479Z,7.62
2022-12-01T08:46:31.133Z,7.82
2022-12-01T08:48:58.353Z,7.68
2022-12-01T08:51:26.290Z,7.95
2022-12-01T08:53:55.235Z,6.60
2022-12-01T08:56:30.136Z,7.72
2022-12-01T08:58:58.167Z,6.12
2022-12-01T09:01:28.562Z,7.43
2022-12-01T09:04:06.681Z,8.48
2022-12-01T09:06:44.993Z,7.37
2022-12-01T09:09:14.481Z,7.25
2022-12-01T09:11:43.935Z,7.78
2022-12-01T09:14:12.533Z,7.30
2022-12-01T09:16:40.804Z,7.93
2022-12-01T09:19:08.259Z,7.32
2022-12-01T09:21:37.456Z,8.70
2022-12-01T09:24:06.394Z,6.97
2022-12-01T09:26:34.270Z,7.43
2022-12-01T09:29:06.794Z,6.68
2022-12-01T09:31:35.446Z,7.22
2022-12-01T09:34:06.724Z,7.43
2022-12-01T09:36:35.675Z,7.37
2022-12-01T09:39:04.527Z,6.35
2022-12-01T09:41:37.214Z,6.12
2022-12-01T09:44:20.647Z,7.40
2022-12-01T09:46:51.608Z,7.05
2022-12-01T09:49:25.401Z,6.75
2022-12-01T09:51:53.347Z,7.05
2022-12-01T09:54:20.783Z,7.50
2022-12-01T09:56:53.056Z,6.97
2022-12-01T09:59:24.959Z,6.93
2022-12-01T10:02:02.686Z,7.45
2022-12-01T10:04:44.955Z,7.15
2022-12-01T10:07:24.061Z,7.22
2022-12-01T10:09:59.584Z,6.57
2022-12-01T10:12:31.436Z,7.85
2022-12-01T10:15:28.372Z,7.03
2022-12-01T10:18:07.660Z,7.20
2022-12-01T10:20:59.625Z,6.57
2022-12-01T10:23:41.758Z,6.35
2022-12-01T10:26:16.830Z,6.72
2022-12-01T10:28:53.852Z,7.12
2022-12-01T10:31:35.670Z,7.25
2022-12-01T10:34:16.824Z,7.32
2022-12-01T10:36:44.222Z,8.07
2022-12-01T10:39:18.639Z,7.78
2022-12-01T10:41:46.279Z,8.25
2022-12-01T10:44:13.519Z,6.95
2022-12-01T10:46:52.992Z,7.03
2022-12-01T10:49:20.634Z,7.12
2022-12-01T10:51:54.886Z,7.40
2022-12-01T10:54:42.542Z,7.05
2022-12-01T10:57:15.701Z,6.80
2022-12-01T10:59:49.183Z,7.80
2022-12-01T11:02:26.382Z,8.80
2022-12-01T11:04:56.199Z,7.72
2022-12-01T11:07:25.956Z,7.37
2022-12-01T11:10:22.764Z,7.87
2022-12-01T11:12:58.787Z,7.80
2022-12-01T11:15:31.650Z,8.18
2022-12-01T11:18:09.696Z,7.70
2022-12-01T11:20:39.323Z,8.48
2022-12-01T11:23:18.530Z,7.60
2022-12-01T11:26:04.639Z,8.68
2022-12-01T11:28:32.940Z,8.25
2022-12-01T11:31:07.705Z,8.85
2022-12-01T11:33:44.745Z,8.02
2022-12-01T11:36:20.724Z,8.80
2022-12-01T11:38:47.868Z,8.63
2022-12-01T11:41:27.370Z,8.27
2022-12-01T11:44:01.585Z,8.73
2022-12-01T11:46:34.864Z,8.73
2022-12-01T11:49:02.010Z,8.05
2022-12-01T11:51:37.522Z,8.32
2022-12-01T11:54:15.440Z,8.45
2022-12-01T11:56:44.092Z,8.77
2022-12-01T11:59:17.561Z,9.02
2022-12-01T12:02:11.319Z,8.35
2022-12-01T12:05:03.471Z,9.65
2022-12-01T12:07:37.934Z,8.88
2022-12-01T12:10:23.748Z,8.93
2022-12-01T12:13:14.525Z,8.80
2022-12-01T12:15:44.989Z,8.48
2022-12-01T12:18:53.942Z,8.88
2022-12-01T12:21:42.860Z,8.38
2022-12-01T12:24:13.314Z,8.55
2022-12-01T12:26:44.500Z,9.13
2022-12-01T12:29:38.990Z,8.13
2022-12-01T12:34:36.327Z,8.38
2022-12-01T12:37:20.639Z,9.27
2022-12-01T12:42:36.189Z,8.98
2022-12-01T12:45:32.526Z,8.20
2022-12-01T12:48:27.544Z,8.18
2022-12-01T12:51:22.896Z,8.75
2022-12-01T12:53:54.781Z,9.15
2022-12-01T12:56:24.949Z,9.45
2022-12-01T12:58:59.593Z,7.62
2022-12-01T13:01:43.187Z,7.95
2022-12-01T13:04:22.132Z,7.85
2022-12-01T13:06:53.163Z,7.70
2022-12-01T13:09:31.264Z,8.48
2022-12-01T13:12:10.291Z,7.95
2022-12-01T13:14:44.009Z,7.43
2022-12-01T13:17:13.976Z,9.57
2022-12-01T13:19:42.645Z,8.18
2022-12-01T13:22:12.782Z,8.55
2022-12-01T13:24:40.475Z,8.05
2022-12-01T13:27:18.565Z,7.43
2022-12-01T13:29:50.096Z,8.43
2022-12-01T13:32:46.553Z,7.75
2022-12-01T13:35:25.413Z,8.25
2022-12-01T13:37:53.224Z,8.45
2022-12-01T13:40:29.899Z,8.48
2022-12-01T13:43:10.349Z,8.63
2022-12-01T13:45:38.947Z,8.43
2022-12-01T13:48:08.687Z,8.57
2022-12-01T13:50:45.735Z,9.38
2022-12-01T13:53:14.684Z,8.43
2022-12-01T13:56:03.595Z,8.90
2022-12-01T13:58:33.458Z,8.73
2022-12-01T14:01:23.333Z,8.68
2022-12-01T14:04:01.198Z,9.45
2022-12-01T14:06:49.415Z,9.63
2022-12-01T14:09:24.043Z,8.82
2022-12-01T14:14:28.031Z,8.45
2022-12-01T14:16:58.532Z,9.10
2022-12-01T14:19:37.207Z,9.40
2022-12-01T14:22:40.059Z,9.45
2022-12-01T14:25:29.140Z,9.43
2022-12-01T14:28:02.207Z,10.05
2022-12-01T14:30:42.033Z,9.98
2022-12-01T14:33:51.257Z,9.18
2022-12-01T14:36:24.371Z,10.65
2022-12-01T14:39:03.986Z,14.52
2022-12-01T14:41:42.023Z,12.43
2022-12-01T14:44:36.703Z,13.27
2022-12-01T14:47:19.750Z,13.48
2022-12-01T14:49:46.775Z,12.23
2022-12-01T14:52:21.093Z,13.85
2022-12-01T14:54:49.504Z,14.38
2022-12-01T14:57:20.293Z,15.48
2022-12-01T15:00:02.057Z,16.25
2022-12-01T15:02:29.408Z,13.68
2022-12-01T15:05:10.175Z,15.23
2022-12-01T15:07:39.907Z,15.20
2022-12-01T15:10:17.344Z,14.95
2022-12-01T15:12:45.305Z,14.70
2022-12-01T15:15:17.824Z,15.05
2022-12-01T15:17:48.952Z,13.68
2022-12-01T15:20:35.121Z,14.32
2022-12-01T15:23:13.792Z,13.48
2022-12-01T15:25:43.539Z,12.50
2022-12-01T15:28:16.823Z,14.95
2022-12-01T15:30:47.290Z,13.52
2022-12-01T15:33:36.811Z,13.10
2022-12-01T15:36:04.783Z,14.27
2022-12-01T15:38:34.655Z,15.10
2022-12-01T15:43:58.579Z,13.88
2022-12-01T15:46:34.219Z,13.00
2022-12-01T15:49:09.662Z,13.75
2022-12-01T15:51:36.858Z,17.00
2022-12-01T15:54:04.464Z,16.83
2022-12-01T15:56:41.514Z,17.60
2022-12-01T15:59:12.247Z,18.15
2022-12-01T16:01:41.268Z,16.83
2022-12-01T16:04:21.944Z,20.83
2022-12-01T16:07:13.870Z,17.45
2022-12-01T16:09:43.597Z,15.20
2022-12-01T16:12:16.433Z,17.23
2022-12-01T16:15:06.804Z,17.73
2022-12-01T16:17:48.186Z,16.42
2022-12-01T16:20:18.618Z,15.38
2022-12-01T16:22:47.006Z,15.10
2022-12-01T16:25:19.504Z,16.23
2022-12-01T16:27:52.001Z,18.12
2022-12-01T16:30:24.109Z,17.73
2022-12-01T16:32:51.731Z,16.35
2022-12-01T16:35:26.524Z,21.30
2022-12-01T16:37:54.769Z,16.27
2022-12-01T16:40:21.961Z,12.57
2022-12-01T16:42:49.962Z,13.13
2022-12-01T16:45:18.305Z,17.83
2022-12-01T16:47:47.226Z,16.08
2022-12-01T16:50:19.450Z,15.13
2022-12-01T16:52:46.835Z,15.35
2022-12-01T16:55:33.126Z,14.50
2022-12-01T16:58:00.439Z,18.05
2022-12-01T17:00:29.330Z,15.80
2022-12-01T17:02:57.223Z,17.23
2022-12-01T17:05:24.941Z,13.88
2022-12-01T17:07:52.185Z,14.10
2022-12-01T17:10:20.622Z,12.95
2022-12-01T17:12:47.906Z,14.52
2022-12-01T17:15:15.113Z,13.30
2022-12-01T17:17:42.154Z,15.88
2022-12-01T17:20:10.546Z,18.30
2022-12-01T17:22:37.817Z,20.83
2022-12-01T17:25:05.839Z,17.58
2022-12-01T17:27:33.642Z,17.23
2022-12-01T17:30:01.909Z,16.40
2022-12-01T17:32:29.067Z,19.25
2022-12-01T17:34:56.347Z,14.98
2022-12-01T17:37:23.353Z,13.60
2022-12-01T17:39:50.581Z,14.18
2022-12-01T17:42:17.849Z,12.88
2022-12-01T17:44:44.880Z,12.85
2022-12-01T17:47:12.380Z,11.50
2022-12-01T17:49:39.687Z,12.00
2022-12-01T17:52:08.276Z,12.98
2022-12-01T17:54:35.343Z,10.60
2022-12-01T17:57:02.611Z,12.95
2022-12-01T17:59:29.583Z,15.23
2022-12-01T18:01:56.716Z,14.15
2022-12-01T18:04:24.079Z,15.80
2022-12-01T18:06:54.263Z,15.77
2022-12-01T18:09:21.894Z,17.50
2022-12-01T18:11:49.530Z,17.23
2022-12-01T18:14:17.830Z,16.15
2022-12-01T18:16:45.298Z,14.50
2022-12-01T18:19:13.122Z,15.35
2022-12-01T18:21:40.625Z,17.37
2022-12-01T18:24:11.375Z,16.75
2022-12-01T18:26:40.182Z,17.80
2022-12-01T18:29:11.880Z,15.88
2022-12-01T18:31:39.917Z,15.55
2022-12-01T18:34:08.011Z,16.85
2022-12-01T18:36:36.802Z,14.57
2022-12-01T18:39:07.645Z,14.18
2022-12-01T18:41:35.796Z,13.55
2022-12-01T18:44:03.478Z,13.52
2022-12-01T18:46:31.515Z,13.75
2022-12-01T18:49:02.125Z,14.20
2022-12-01T18:51:32.784Z,14.13
2022-12-01T18:54:01.325Z,13.38
2022-12-01T18:56:29.495Z,12.32
2022-12-01T18:59:05.426Z,12.77
2022-12-01T19:01:40.023Z,13.35
2022-12-01T19:04:08.543Z,12.55
2022-12-01T19:06:37.093Z,13.73
2022-12-01T19:09:07.962Z,13.48
2022-12-01T19:11:35.877Z,13.48
2022-12-01T19:14:03.638Z,13.23
2022-12-01T19:16:31.767Z,15.10
2022-12-01T19:19:00.809Z,14.90
2022-12-01T19:21:27.893Z,14.38
2022-12-01T19:23:54.955Z,16.23
2022-12-01T19:26:23.040Z,16.62
2022-12-01T19:28:50.147Z,13.75
2022-12-01T19:31:19.800Z,12.55
2022-12-01T19:33:47.598Z,14.50
2022-12-01T19:36:17.702Z,14.07
2022-12-01T19:38:45.158Z,15.63
2022-12-01T19:41:13.526Z,16.27
2022-12-01T19:43:42.285Z,17.35
2022-12-01T19:46:12.402Z,16.77
2022-12-01T19:48:39.829Z,15.55
2022-12-01T19:51:07.212Z,16.73
2022-12-01T19:53:34.367Z,18.35
2022-12-01T19:56:03.095Z,17.90
2022-12-01T19:58:33.181Z,19.77
2022-12-01T20:01:08.754Z,18.50
2022-12-01T20:03:37.721Z,17.67
2022-12-01T20:06:09.893Z,16.23
2022-12-01T20:08:37.324Z,14.93
2022-12-01T20:11:05.640Z,15.32
2022-12-01T20:13:33.915Z,13.40
2022-12-01T20:16:13.378Z,13.38
2022-12-01T20:18:41.459Z,12.80
2022-12-01T20:21:21.292Z,12.95
2022-12-01T20:23:50.683Z,13.05
2022-12-01T20:26:19.029Z,12.20
2022-12-01T20:28:48.091Z,11.82
2022-12-01T20:31:21.169Z,11.27
2022-12-01T20:33:49.656Z,11.40
2022-12-01T20:36:16.805Z,12.07
2022-12-01T20:38:43.892Z,11.45
2022-12-01T20:41:11.904Z,12.20
2022-12-01T20:43:39.316Z,11.95
2022-12-01T20:46:07.060Z,12.88
2022-12-01T20:48:34.454Z,12.50
2022-12-01T20:51:02.990Z,12.68
2022-12-01T20:53:30.243Z,13.68
2022-12-01T20:55:57.548Z,12.75
2022-12-01T20:58:24.664Z,13.55
2022-12-01T21:00:51.706Z,11.70
2022-12-01T21:03:19.075Z,12.77
2022-12-01T21:05:46.079Z,12.95
2022-12-01T21:08:13.499Z,11.82
2022-12-01T21:10:44.810Z,11.55
2022-12-01T21:13:38.186Z,12.10
2022-12-01T21:16:13.845Z,11.38
2022-12-01T21:19:07.883Z,13.02
2022-12-01T21:21:39.316Z,13.38
2022-12-01T21:24:18.721Z,12.65
2022-12-01T21:26:59.794Z,13.00
2022-12-01T21:29:31.609Z,13.32
2022-12-01T21:32:00.329Z,12.82
2022-12-01T21:34:28.868Z,14.75
2022-12-01T21:36:59.037Z,14.02
2022-12-01T21:39:26.593Z,15.82
2022-12-01T21:41:56.126Z,14.38
2022-12-01T21:44:35.395Z,13.35
2022-12-01T21:47:20.384Z,13.25
2022-12-01T21:49:50.468Z,14.18
2022-12-01T21:52:23.274Z,15.65
2022-12-01T21:54:51.067Z,16.92
2022-12-01T21:57:53.538Z,14.93
2022-12-01T22:00:33.675Z,14.82
2022-12-01T22:03:33.989Z,15.20
2022-12-01T22:06:30.734Z,16.58
2022-12-01T22:09:04.052Z,15.45
2022-12-01T22:11:31.530Z,15.85
2022-12-01T22:14:13.126Z,16.83
2022-12-01T22:16:45.333Z,17.50
2022-12-01T22:19:15.793Z,15.77
2022-12-01T22:21:50.265Z,16.37
2022-12-01T22:24:48.002Z,16.73
2022-12-01T22:27:30.483Z,15.07
2022-12-01T22:30:03.513Z,15.27
2022-12-01T22:32:37.224Z,16.02
2022-12-01T22:35:24.101Z,14.00
2022-12-01T22:38:06.179Z,15.15
2022-12-01T22:40:34.008Z,14.20
2022-12-01T22:43:28.743Z,15.15
2022-12-01T22:46:21.111Z,13.85
2022-12-01T22:48:59.647Z,14.02
2022-12-01T22:51:35.986Z,14.10
2022-12-01T22:54:12.059Z,15.38
2022-12-01T22:56:41.633Z,14.63
2022-12-01T22:59:44.223Z,14.05
2022-12-01T23:02:17.998Z,13.93
2022-12-01T23:04:48.442Z,15.85
2022-12-01T23:07:36.406Z,15.73
2022-12-01T23:10:09.752Z,14.93
2022-12-01T23:12:37.836Z,16.02
2022-12-01T23:15:34.027Z,15.10
2022-12-01T23:18:20.833Z,13.35
2022-12-01T23:20:52.329Z,14.05
2022-12-01T23:23:22.121Z,14.10
2022-12-01T23:25:50.207Z,15.35
2022-12-01T23:28:17.510Z,14.75
2022-12-01T23:30:46.583Z,14.32
2022-12-01T23:33:13.497Z,13.85
2022-12-01T23:35:52.157Z,13.93
2022-12-01T23:38:22.888Z,13.50
2022-12-01T23:40:51.997Z,13.98
2022-12-01T23:43:23.817Z,14.93
2022-12-01T23:46:04.508Z,14.63
2022-12-01T23:48:39.967Z,15.15
2022-12-01T23:51:18.748Z,14.38
2022-12-01T23:53:46.602Z,14.05
2022-12-01T23:56:17.087Z,13.48
2022-12-01T23:58:44.674Z,13.70
